Kezdőlap
METAR-TAF:

METAR-TAF

Repülőterek :

Karacsi, Pakisztán

földrajzi szélesség: 24-54N, földrajzi hosszúság: 067-08E, magasság: 21 m

Jelenlegi meteorológiai megfigyelések

A jelentés 35 perccel ezelõtt készült, 21:25 UTC
Szélcsend
Hőmérséklet 23°C
Páratartalom 73%
Légköri nyomás 1015 hPa
Látótávolság: 4000 m
füst

METAR: OPKC 212125Z 00000KT 4000 FU NSC 23/18 Q1015 NOSIG

Idő: 03:00 (22:00 UTC)

Előrejelzés

A jelentés 3 órával és 30 perccel ezelõtt készült, 18:30 UTC
Az előrejelzés 21-én 21 óra UTC és 22-én 06 óra UTC között érvényes
Észak-északnyugati szél 7 kt
Látótávolság: 5000 m
Száraz légköri homály
22-én 00 óra UTC és 22-én 04 óra UTC között ideiglenes
Észak-északkeleti szél 5 kt
Látótávolság: 3000 m
füst

TAF: OPKC 211830Z 2121/2206 33007KT 5000 HZ TEMPO 2200/2204 03005KT 3000 FU NSC

Meteorológiai megfigyelések és előrejelzések több, mint 4000 repülőtéren (METAR és TAF jelentéseket).

A térképen piros és sárga pontok jelzik az elérhető meteorológiai állomásokat.

Mozgassa az egeret a pont fölött, hogy megjelenjen az állomás neve.

Azután kattintson az időjárási megfigyelések és előrejelzések megtekintéséhez.

A térkép megváltoztatása: kattintson a fekete keresztel jelölt zöld gombra ráközelítéshez, a vonallal jelölt zöld gombra távolításhoz, vagy a zöld nyilakra a szomszédos térképek eléréséhez.


METAR-TAF: